Terminal Aerodrome Forecast
Issued by NWS Northern Indiana

Home | Current Version | Previous Version | Text Only | Print | Product List | Glossary On
Versions: 1 2 3 4 5 6 7 8 9 10 11 12 13 14 15 16
000
FTUS43 KIWX 232300
TAFFWA
TAF
KFWA 232330Z 2400/2424 12014KT 3SM RA BR OVC012 WS020/16050KT
      TEMPO 2401/2405 2SM +RA BR OVC006
     FM240600 18015G23KT 5SM -RA BR OVC006
     FM241600 24023G34KT P6SM -RA OVC010
     FM242000 24025G38KT P6SM -RASN OVC020=

USA.gov is the U.S. government's official web portal to all federal, state and local government web resources and services.